sensor_id;sensor_type;location;lat;lon;timestamp;P1;durP1;ratioP1;P2;durP2;ratioP2
59189;SDS011;50749;51.636;4.948;2023-05-23T00:02:24;9.50;;;4.68;;
59189;SDS011;50749;51.636;4.948;2023-05-23T00:04:50;8.23;;;4.35;;
59189;SDS011;50749;51.636;4.948;2023-05-23T00:07:16;10.55;;;4.53;;
59189;SDS011;50749;51.636;4.948;2023-05-23T00:09:42;8.63;;;3.95;;
59189;SDS011;50749;51.636;4.948;2023-05-23T00:12:08;7.65;;;4.07;;
59189;SDS011;50749;51.636;4.948;2023-05-23T00:14:34;7.95;;;4.07;;
59189;SDS011;50749;51.636;4.948;2023-05-23T00:17:00;6.65;;;3.80;;
59189;SDS011;50749;51.636;4.948;2023-05-23T00:19:26;7.18;;;3.78;;
59189;SDS011;50749;51.636;4.948;2023-05-23T00:21:52;5.68;;;3.75;;
59189;SDS011;50749;51.636;4.948;2023-05-23T00:24:20;8.52;;;3.95;;
59189;SDS011;50749;51.636;4.948;2023-05-23T00:26:46;6.90;;;3.83;;
59189;SDS011;50749;51.636;4.948;2023-05-23T00:29:13;7.18;;;3.95;;
59189;SDS011;50749;51.636;4.948;2023-05-23T00:31:41;8.27;;;4.47;;
59189;SDS011;50749;51.636;4.948;2023-05-23T00:34:14;7.90;;;4.03;;
59189;SDS011;50749;51.636;4.948;2023-05-23T00:36:43;7.40;;;4.03;;
59189;SDS011;50749;51.636;4.948;2023-05-23T00:39:12;8.68;;;4.78;;
59189;SDS011;50749;51.636;4.948;2023-05-23T00:41:47;7.68;;;4.47;;
59189;SDS011;50749;51.636;4.948;2023-05-23T00:44:14;6.55;;;4.13;;
59189;SDS011;50749;51.636;4.948;2023-05-23T00:46:43;10.52;;;4.60;;
59189;SDS011;50749;51.636;4.948;2023-05-23T00:49:12;9.95;;;4.50;;
59189;SDS011;50749;51.636;4.948;2023-05-23T00:51:38;9.57;;;4.50;;
59189;SDS011;50749;51.636;4.948;2023-05-23T00:54:07;7.25;;;3.83;;
59189;SDS011;50749;51.636;4.948;2023-05-23T00:56:34;7.38;;;4.38;;
59189;SDS011;50749;51.636;4.948;2023-05-23T00:59:01;10.32;;;3.97;;
59189;SDS011;50749;51.636;4.948;2023-05-23T01:01:26;9.68;;;4.00;;
59189;SDS011;50749;51.636;4.948;2023-05-23T01:03:53;8.93;;;3.50;;
59189;SDS011;50749;51.636;4.948;2023-05-23T01:06:18;12.10;;;4.43;;
59189;SDS011;50749;51.636;4.948;2023-05-23T01:08:44;11.88;;;4.88;;
59189;SDS011;50749;51.636;4.948;2023-05-23T01:11:11;10.15;;;4.20;;
59189;SDS011;50749;51.636;4.948;2023-05-23T01:13:54;9.98;;;3.88;;
59189;SDS011;50749;51.636;4.948;2023-05-23T01:22:30;8.00;;;4.07;;
59189;SDS011;50749;51.636;4.948;2023-05-23T01:28:02;8.23;;;4.18;;
59189;SDS011;50749;51.636;4.948;2023-05-23T01:30:34;10.65;;;4.07;;
59189;SDS011;50749;51.636;4.948;2023-05-23T01:33:04;11.70;;;4.15;;
59189;SDS011;50749;51.636;4.948;2023-05-23T01:35:32;8.70;;;3.97;;
59189;SDS011;50749;51.636;4.948;2023-05-23T01:37:58;7.70;;;4.30;;
59189;SDS011;50749;51.636;4.948;2023-05-23T01:40:24;8.82;;;4.25;;
59189;SDS011;50749;51.636;4.948;2023-05-23T01:42:50;7.38;;;3.78;;
59189;SDS011;50749;51.636;4.948;2023-05-23T01:45:18;6.75;;;4.10;;
59189;SDS011;50749;51.636;4.948;2023-05-23T01:47:46;8.43;;;4.35;;
59189;SDS011;50749;51.636;4.948;2023-05-23T01:50:15;6.70;;;4.05;;
59189;SDS011;50749;51.636;4.948;2023-05-23T01:52:42;5.70;;;3.67;;
59189;SDS011;50749;51.636;4.948;2023-05-23T01:55:08;7.85;;;4.45;;
59189;SDS011;50749;51.636;4.948;2023-05-23T01:57:36;7.93;;;3.95;;
59189;SDS011;50749;51.636;4.948;2023-05-23T02:00:06;6.03;;;3.70;;
59189;SDS011;50749;51.636;4.948;2023-05-23T02:02:32;7.18;;;3.50;;
59189;SDS011;50749;51.636;4.948;2023-05-23T02:04:58;9.57;;;3.83;;
59189;SDS011;50749;51.636;4.948;2023-05-23T02:07:24;9.07;;;4.10;;
59189;SDS011;50749;51.636;4.948;2023-05-23T02:09:50;8.38;;;4.10;;
59189;SDS011;50749;51.636;4.948;2023-05-23T02:12:16;8.23;;;3.92;;
59189;SDS011;50749;51.636;4.948;2023-05-23T02:14:42;9.18;;;5.45;;
59189;SDS011;50749;51.636;4.948;2023-05-23T02:17:08;10.95;;;3.85;;
59189;SDS011;50749;51.636;4.948;2023-05-23T02:19:35;13.85;;;4.80;;
59189;SDS011;50749;51.636;4.948;2023-05-23T02:22:00;7.82;;;3.78;;
59189;SDS011;50749;51.636;4.948;2023-05-23T02:24:26;6.93;;;3.75;;
59189;SDS011;50749;51.636;4.948;2023-05-23T02:26:52;6.40;;;3.78;;
59189;SDS011;50749;51.636;4.948;2023-05-23T02:29:18;9.27;;;4.20;;
59189;SDS011;50749;51.636;4.948;2023-05-23T02:31:44;7.68;;;3.90;;
59189;SDS011;50749;51.636;4.948;2023-05-23T02:34:13;6.47;;;3.97;;
59189;SDS011;50749;51.636;4.948;2023-05-23T02:36:39;7.93;;;3.90;;
59189;SDS011;50749;51.636;4.948;2023-05-23T02:39:05;9.57;;;4.78;;
59189;SDS011;50749;51.636;4.948;2023-05-23T02:41:31;8.02;;;3.95;;
59189;SDS011;50749;51.636;4.948;2023-05-23T02:43:57;7.85;;;3.85;;
59189;SDS011;50749;51.636;4.948;2023-05-23T02:46:23;7.63;;;4.15;;
59189;SDS011;50749;51.636;4.948;2023-05-23T02:48:50;9.18;;;4.40;;
59189;SDS011;50749;51.636;4.948;2023-05-23T02:51:16;4.72;;;3.42;;
59189;SDS011;50749;51.636;4.948;2023-05-23T02:53:42;6.68;;;3.45;;
59189;SDS011;50749;51.636;4.948;2023-05-23T02:56:07;6.00;;;3.35;;
59189;SDS011;50749;51.636;4.948;2023-05-23T02:58:34;7.30;;;3.47;;
59189;SDS011;50749;51.636;4.948;2023-05-23T03:01:03;5.55;;;3.60;;
59189;SDS011;50749;51.636;4.948;2023-05-23T03:03:29;7.57;;;3.97;;
59189;SDS011;50749;51.636;4.948;2023-05-23T03:05:57;5.13;;;3.25;;
59189;SDS011;50749;51.636;4.948;2023-05-23T03:08:23;6.30;;;3.72;;
59189;SDS011;50749;51.636;4.948;2023-05-23T03:10:49;10.63;;;3.80;;
59189;SDS011;50749;51.636;4.948;2023-05-23T03:13:16;6.10;;;3.10;;
59189;SDS011;50749;51.636;4.948;2023-05-23T03:15:43;6.78;;;3.40;;
59189;SDS011;50749;51.636;4.948;2023-05-23T03:18:09;6.35;;;3.25;;
59189;SDS011;50749;51.636;4.948;2023-05-23T03:20:35;7.97;;;3.40;;
59189;SDS011;50749;51.636;4.948;2023-05-23T03:23:01;7.05;;;3.83;;
59189;SDS011;50749;51.636;4.948;2023-05-23T03:25:27;8.82;;;3.63;;
59189;SDS011;50749;51.636;4.948;2023-05-23T03:27:53;5.97;;;3.35;;
59189;SDS011;50749;51.636;4.948;2023-05-23T03:30:18;7.65;;;4.05;;
59189;SDS011;50749;51.636;4.948;2023-05-23T03:32:45;7.18;;;3.67;;
59189;SDS011;50749;51.636;4.948;2023-05-23T03:35:11;10.07;;;3.83;;
59189;SDS011;50749;51.636;4.948;2023-05-23T03:37:37;5.70;;;3.60;;
59189;SDS011;50749;51.636;4.948;2023-05-23T03:40:03;11.05;;;3.55;;
59189;SDS011;50749;51.636;4.948;2023-05-23T03:42:30;5.47;;;3.65;;
59189;SDS011;50749;51.636;4.948;2023-05-23T03:44:55;8.75;;;3.83;;
59189;SDS011;50749;51.636;4.948;2023-05-23T03:47:22;7.60;;;3.97;;
59189;SDS011;50749;51.636;4.948;2023-05-23T03:49:48;9.65;;;4.10;;
59189;SDS011;50749;51.636;4.948;2023-05-23T03:52:15;8.73;;;3.95;;
59189;SDS011;50749;51.636;4.948;2023-05-23T03:54:40;12.05;;;4.50;;
59189;SDS011;50749;51.636;4.948;2023-05-23T03:57:09;11.15;;;3.58;;
59189;SDS011;50749;51.636;4.948;2023-05-23T03:59:34;7.22;;;3.50;;
59189;SDS011;50749;51.636;4.948;2023-05-23T04:02:00;6.60;;;3.35;;
59189;SDS011;50749;51.636;4.948;2023-05-23T04:04:26;8.95;;;4.22;;
59189;SDS011;50749;51.636;4.948;2023-05-23T04:06:53;12.07;;;4.63;;
59189;SDS011;50749;51.636;4.948;2023-05-23T04:09:20;7.40;;;4.35;;
59189;SDS011;50749;51.636;4.948;2023-05-23T04:11:46;13.60;;;5.97;;
59189;SDS011;50749;51.636;4.948;2023-05-23T04:14:12;11.27;;;4.10;;
59189;SDS011;50749;51.636;4.948;2023-05-23T04:16:38;10.65;;;5.00;;
59189;SDS011;50749;51.636;4.948;2023-05-23T04:19:05;12.00;;;4.78;;
59189;SDS011;50749;51.636;4.948;2023-05-23T04:21:32;9.65;;;4.38;;
59189;SDS011;50749;51.636;4.948;2023-05-23T04:23:59;10.30;;;4.45;;
59189;SDS011;50749;51.636;4.948;2023-05-23T04:26:25;8.60;;;3.85;;
59189;SDS011;50749;51.636;4.948;2023-05-23T04:28:51;7.28;;;4.40;;
59189;SDS011;50749;51.636;4.948;2023-05-23T04:31:21;11.63;;;4.20;;
59189;SDS011;50749;51.636;4.948;2023-05-23T04:33:47;10.40;;;3.78;;
59189;SDS011;50749;51.636;4.948;2023-05-23T04:36:14;11.02;;;4.50;;
59189;SDS011;50749;51.636;4.948;2023-05-23T04:38:40;10.63;;;4.05;;
59189;SDS011;50749;51.636;4.948;2023-05-23T04:41:06;8.88;;;3.72;;
59189;SDS011;50749;51.636;4.948;2023-05-23T04:43:34;7.63;;;3.95;;
59189;SDS011;50749;51.636;4.948;2023-05-23T04:46:02;8.77;;;4.03;;
59189;SDS011;50749;51.636;4.948;2023-05-23T04:48:28;10.43;;;4.32;;
59189;SDS011;50749;51.636;4.948;2023-05-23T04:50:55;11.95;;;4.07;;
59189;SDS011;50749;51.636;4.948;2023-05-23T04:53:21;9.45;;;3.97;;
59189;SDS011;50749;51.636;4.948;2023-05-23T04:55:48;15.27;;;4.80;;
59189;SDS011;50749;51.636;4.948;2023-05-23T04:58:13;9.20;;;4.20;;
59189;SDS011;50749;51.636;4.948;2023-05-23T05:00:39;11.93;;;3.80;;
59189;SDS011;50749;51.636;4.948;2023-05-23T05:03:05;7.80;;;3.72;;
59189;SDS011;50749;51.636;4.948;2023-05-23T05:05:31;12.20;;;3.67;;
59189;SDS011;50749;51.636;4.948;2023-05-23T05:07:57;6.95;;;3.75;;
59189;SDS011;50749;51.636;4.948;2023-05-23T05:10:23;11.40;;;3.78;;
59189;SDS011;50749;51.636;4.948;2023-05-23T05:12:48;10.77;;;3.72;;
59189;SDS011;50749;51.636;4.948;2023-05-23T05:15:15;10.90;;;4.70;;
59189;SDS011;50749;51.636;4.948;2023-05-23T05:17:41;9.60;;;3.58;;
59189;SDS011;50749;51.636;4.948;2023-05-23T05:20:08;12.10;;;3.80;;
59189;SDS011;50749;51.636;4.948;2023-05-23T05:22:35;9.45;;;3.97;;
59189;SDS011;50749;51.636;4.948;2023-05-23T05:25:08;8.15;;;3.20;;
59189;SDS011;50749;51.636;4.948;2023-05-23T05:27:35;8.98;;;3.28;;
59189;SDS011;50749;51.636;4.948;2023-05-23T05:30:06;13.63;;;4.32;;
59189;SDS011;50749;51.636;4.948;2023-05-23T05:32:33;11.30;;;3.70;;
59189;SDS011;50749;51.636;4.948;2023-05-23T05:34:59;9.00;;;3.40;;
59189;SDS011;50749;51.636;4.948;2023-05-23T05:37:25;8.45;;;3.55;;
59189;SDS011;50749;51.636;4.948;2023-05-23T05:39:51;9.85;;;4.28;;
59189;SDS011;50749;51.636;4.948;2023-05-23T05:42:19;8.18;;;3.53;;
59189;SDS011;50749;51.636;4.948;2023-05-23T05:44:46;8.02;;;3.50;;
59189;SDS011;50749;51.636;4.948;2023-05-23T05:47:12;12.18;;;3.38;;
59189;SDS011;50749;51.636;4.948;2023-05-23T05:49:38;5.28;;;3.00;;
59189;SDS011;50749;51.636;4.948;2023-05-23T05:52:05;7.00;;;3.25;;
59189;SDS011;50749;51.636;4.948;2023-05-23T05:54:31;8.02;;;4.22;;
59189;SDS011;50749;51.636;4.948;2023-05-23T05:56:59;11.35;;;3.42;;
59189;SDS011;50749;51.636;4.948;2023-05-23T05:59:25;9.52;;;3.20;;
59189;SDS011;50749;51.636;4.948;2023-05-23T06:01:51;4.80;;;2.80;;
59189;SDS011;50749;51.636;4.948;2023-05-23T06:04:17;7.93;;;2.70;;
59189;SDS011;50749;51.636;4.948;2023-05-23T06:06:43;8.75;;;2.67;;
59189;SDS011;50749;51.636;4.948;2023-05-23T06:09:09;9.40;;;4.10;;
59189;SDS011;50749;51.636;4.948;2023-05-23T06:11:35;8.65;;;3.08;;
59189;SDS011;50749;51.636;4.948;2023-05-23T06:14:05;9.25;;;3.05;;
59189;SDS011;50749;51.636;4.948;2023-05-23T06:16:32;9.68;;;2.80;;
59189;SDS011;50749;51.636;4.948;2023-05-23T06:18:58;5.00;;;2.47;;
59189;SDS011;50749;51.636;4.948;2023-05-23T06:21:24;7.32;;;2.85;;
59189;SDS011;50749;51.636;4.948;2023-05-23T06:23:50;8.73;;;2.83;;
59189;SDS011;50749;51.636;4.948;2023-05-23T06:26:16;9.40;;;2.88;;
59189;SDS011;50749;51.636;4.948;2023-05-23T06:28:42;11.57;;;2.50;;
59189;SDS011;50749;51.636;4.948;2023-05-23T06:31:08;6.13;;;2.70;;
59189;SDS011;50749;51.636;4.948;2023-05-23T06:33:34;8.27;;;3.05;;
59189;SDS011;50749;51.636;4.948;2023-05-23T06:36:00;5.20;;;2.35;;
59189;SDS011;50749;51.636;4.948;2023-05-23T06:38:28;9.25;;;2.72;;
59189;SDS011;50749;51.636;4.948;2023-05-23T06:40:55;8.02;;;2.65;;
59189;SDS011;50749;51.636;4.948;2023-05-23T06:43:21;11.20;;;3.20;;
59189;SDS011;50749;51.636;4.948;2023-05-23T06:45:47;5.88;;;2.63;;
59189;SDS011;50749;51.636;4.948;2023-05-23T06:48:13;5.00;;;2.67;;
59189;SDS011;50749;51.636;4.948;2023-05-23T06:50:39;6.45;;;2.78;;
59189;SDS011;50749;51.636;4.948;2023-05-23T06:53:05;7.50;;;2.97;;
59189;SDS011;50749;51.636;4.948;2023-05-23T06:55:32;9.88;;;2.83;;
59189;SDS011;50749;51.636;4.948;2023-05-23T06:58:01;7.93;;;2.65;;
59189;SDS011;50749;51.636;4.948;2023-05-23T07:00:29;7.47;;;3.08;;
59189;SDS011;50749;51.636;4.948;2023-05-23T07:02:56;7.72;;;2.85;;
59189;SDS011;50749;51.636;4.948;2023-05-23T07:05:26;8.57;;;3.10;;
59189;SDS011;50749;51.636;4.948;2023-05-23T07:07:53;7.82;;;3.15;;
59189;SDS011;50749;51.636;4.948;2023-05-23T07:10:19;4.60;;;2.72;;
59189;SDS011;50749;51.636;4.948;2023-05-23T07:12:45;3.80;;;2.15;;
59189;SDS011;50749;51.636;4.948;2023-05-23T07:15:11;7.78;;;2.65;;
59189;SDS011;50749;51.636;4.948;2023-05-23T07:17:39;8.68;;;3.17;;
59189;SDS011;50749;51.636;4.948;2023-05-23T07:20:07;6.72;;;2.55;;
59189;SDS011;50749;51.636;4.948;2023-05-23T07:22:33;7.63;;;2.85;;
59189;SDS011;50749;51.636;4.948;2023-05-23T07:24:58;7.32;;;3.15;;
59189;SDS011;50749;51.636;4.948;2023-05-23T07:27:25;7.75;;;2.80;;
59189;SDS011;50749;51.636;4.948;2023-05-23T07:29:54;6.05;;;2.50;;
59189;SDS011;50749;51.636;4.948;2023-05-23T07:32:22;5.70;;;2.55;;
59189;SDS011;50749;51.636;4.948;2023-05-23T07:34:47;5.60;;;2.58;;
59189;SDS011;50749;51.636;4.948;2023-05-23T07:37:13;6.40;;;2.60;;
59189;SDS011;50749;51.636;4.948;2023-05-23T07:39:40;7.40;;;2.40;;
59189;SDS011;50749;51.636;4.948;2023-05-23T07:42:06;4.70;;;2.33;;
59189;SDS011;50749;51.636;4.948;2023-05-23T07:44:32;6.25;;;2.80;;
59189;SDS011;50749;51.636;4.948;2023-05-23T07:46:58;8.32;;;3.08;;
59189;SDS011;50749;51.636;4.948;2023-05-23T07:49:23;5.95;;;2.80;;
59189;SDS011;50749;51.636;4.948;2023-05-23T07:51:49;6.47;;;3.15;;
59189;SDS011;50749;51.636;4.948;2023-05-23T07:54:15;7.80;;;2.88;;
59189;SDS011;50749;51.636;4.948;2023-05-23T07:56:42;5.53;;;2.70;;
59189;SDS011;50749;51.636;4.948;2023-05-23T07:59:07;7.97;;;2.72;;
59189;SDS011;50749;51.636;4.948;2023-05-23T08:01:35;5.85;;;2.40;;
59189;SDS011;50749;51.636;4.948;2023-05-23T08:04:01;6.65;;;2.50;;
59189;SDS011;50749;51.636;4.948;2023-05-23T08:06:28;5.45;;;2.25;;
59189;SDS011;50749;51.636;4.948;2023-05-23T08:08:54;7.53;;;2.70;;
59189;SDS011;50749;51.636;4.948;2023-05-23T08:11:20;4.63;;;2.13;;
59189;SDS011;50749;51.636;4.948;2023-05-23T08:13:45;5.90;;;2.53;;
59189;SDS011;50749;51.636;4.948;2023-05-23T08:16:11;7.75;;;2.40;;
59189;SDS011;50749;51.636;4.948;2023-05-23T08:18:37;6.45;;;2.50;;
59189;SDS011;50749;51.636;4.948;2023-05-23T08:21:04;4.10;;;2.65;;
59189;SDS011;50749;51.636;4.948;2023-05-23T08:23:29;7.25;;;2.40;;
59189;SDS011;50749;51.636;4.948;2023-05-23T08:25:56;5.43;;;2.60;;
59189;SDS011;50749;51.636;4.948;2023-05-23T08:28:21;4.40;;;2.28;;
59189;SDS011;50749;51.636;4.948;2023-05-23T08:30:47;4.88;;;2.38;;
59189;SDS011;50749;51.636;4.948;2023-05-23T08:33:13;5.07;;;2.25;;
59189;SDS011;50749;51.636;4.948;2023-05-23T08:35:39;4.78;;;1.92;;
59189;SDS011;50749;51.636;4.948;2023-05-23T08:38:06;5.00;;;2.25;;
59189;SDS011;50749;51.636;4.948;2023-05-23T08:40:32;6.72;;;2.25;;
59189;SDS011;50749;51.636;4.948;2023-05-23T08:43:00;6.55;;;2.25;;
59189;SDS011;50749;51.636;4.948;2023-05-23T08:45:26;3.38;;;1.95;;
59189;SDS011;50749;51.636;4.948;2023-05-23T08:47:54;4.25;;;1.92;;
59189;SDS011;50749;51.636;4.948;2023-05-23T08:50:25;6.00;;;2.20;;
59189;SDS011;50749;51.636;4.948;2023-05-23T08:52:57;5.60;;;2.00;;
59189;SDS011;50749;51.636;4.948;2023-05-23T08:55:24;6.07;;;2.42;;
59189;SDS011;50749;51.636;4.948;2023-05-23T08:57:52;5.60;;;1.77;;
59189;SDS011;50749;51.636;4.948;2023-05-23T09:00:25;5.57;;;2.17;;
59189;SDS011;50749;51.636;4.948;2023-05-23T09:02:52;6.55;;;1.90;;
59189;SDS011;50749;51.636;4.948;2023-05-23T09:05:19;3.65;;;2.00;;
59189;SDS011;50749;51.636;4.948;2023-05-23T09:07:45;5.18;;;2.13;;
59189;SDS011;50749;51.636;4.948;2023-05-23T09:10:16;5.68;;;2.25;;
59189;SDS011;50749;51.636;4.948;2023-05-23T09:12:45;2.55;;;1.45;;
59189;SDS011;50749;51.636;4.948;2023-05-23T09:15:11;5.15;;;2.03;;
59189;SDS011;50749;51.636;4.948;2023-05-23T09:17:37;5.28;;;1.95;;
59189;SDS011;50749;51.636;4.948;2023-05-23T09:20:11;5.25;;;1.90;;
59189;SDS011;50749;51.636;4.948;2023-05-23T09:22:38;16.02;;;10.43;;
59189;SDS011;50749;51.636;4.948;2023-05-23T09:25:05;13.80;;;9.90;;
59189;SDS011;50749;51.636;4.948;2023-05-23T09:27:31;14.48;;;11.38;;
59189;SDS011;50749;51.636;4.948;2023-05-23T09:29:58;14.23;;;10.00;;
59189;SDS011;50749;51.636;4.948;2023-05-23T09:32:30;15.60;;;10.18;;
59189;SDS011;50749;51.636;4.948;2023-05-23T09:34:57;14.68;;;9.43;;
59189;SDS011;50749;51.636;4.948;2023-05-23T09:39:54;13.50;;;9.20;;
59189;SDS011;50749;51.636;4.948;2023-05-23T09:42:20;13.70;;;9.00;;
59189;SDS011;50749;51.636;4.948;2023-05-23T09:44:49;15.75;;;9.68;;
59189;SDS011;50749;51.636;4.948;2023-05-23T09:47:17;14.70;;;8.57;;
59189;SDS011;50749;51.636;4.948;2023-05-23T09:49:44;14.98;;;10.00;;
59189;SDS011;50749;51.636;4.948;2023-05-23T09:52:11;12.70;;;7.82;;
59189;SDS011;50749;51.636;4.948;2023-05-23T09:54:38;11.23;;;8.10;;
59189;SDS011;50749;51.636;4.948;2023-05-23T09:57:07;12.25;;;8.07;;
59189;SDS011;50749;51.636;4.948;2023-05-23T09:59:40;11.27;;;7.53;;
59189;SDS011;50749;51.636;4.948;2023-05-23T10:02:12;13.70;;;8.07;;
59189;SDS011;50749;51.636;4.948;2023-05-23T10:04:41;9.75;;;7.00;;
59189;SDS011;50749;51.636;4.948;2023-05-23T10:07:13;12.00;;;6.50;;
59189;SDS011;50749;51.636;4.948;2023-05-23T10:09:52;9.25;;;6.75;;
59189;SDS011;50749;51.636;4.948;2023-05-23T10:15:14;12.95;;;6.47;;
59189;SDS011;50749;51.636;4.948;2023-05-23T10:17:51;7.45;;;5.22;;
59189;SDS011;50749;51.636;4.948;2023-05-23T10:20:27;8.90;;;5.60;;
59189;SDS011;50749;51.636;4.948;2023-05-23T10:22:57;11.43;;;5.45;;
59189;SDS011;50749;51.636;4.948;2023-05-23T10:25:27;11.05;;;5.85;;
59189;SDS011;50749;51.636;4.948;2023-05-23T10:27:54;11.02;;;5.10;;
59189;SDS011;50749;51.636;4.948;2023-05-23T10:30:25;11.10;;;5.50;;
59189;SDS011;50749;51.636;4.948;2023-05-23T10:32:54;11.23;;;5.43;;
59189;SDS011;50749;51.636;4.948;2023-05-23T10:43:33;8.45;;;4.32;;
59189;SDS011;50749;51.636;4.948;2023-05-23T10:46:07;6.90;;;4.35;;
59189;SDS011;50749;51.636;4.948;2023-05-23T10:48:33;8.70;;;4.95;;
59189;SDS011;50749;51.636;4.948;2023-05-23T10:51:06;9.70;;;4.75;;
59189;SDS011;50749;51.636;4.948;2023-05-23T10:53:39;7.20;;;4.05;;
59189;SDS011;50749;51.636;4.948;2023-05-23T10:56:07;8.90;;;4.20;;
59189;SDS011;50749;51.636;4.948;2023-05-23T10:58:35;7.63;;;3.75;;
59189;SDS011;50749;51.636;4.948;2023-05-23T11:01:07;12.25;;;4.18;;
59189;SDS011;50749;51.636;4.948;2023-05-23T11:06:28;10.98;;;3.90;;
59189;SDS011;50749;51.636;4.948;2023-05-23T11:09:01;7.03;;;3.70;;
59189;SDS011;50749;51.636;4.948;2023-05-23T11:14:16;7.78;;;3.50;;
59189;SDS011;50749;51.636;4.948;2023-05-23T11:16:43;7.60;;;3.05;;
59189;SDS011;50749;51.636;4.948;2023-05-23T11:19:26;9.10;;;3.53;;
59189;SDS011;50749;51.636;4.948;2023-05-23T11:24:20;10.57;;;3.22;;
59189;SDS011;50749;51.636;4.948;2023-05-23T11:26:50;8.18;;;3.05;;
59189;SDS011;50749;51.636;4.948;2023-05-23T11:29:25;14.48;;;3.58;;
59189;SDS011;50749;51.636;4.948;2023-05-23T11:31:53;12.35;;;3.25;;
59189;SDS011;50749;51.636;4.948;2023-05-23T11:34:20;16.98;;;3.50;;
59189;SDS011;50749;51.636;4.948;2023-05-23T11:36:46;11.88;;;2.95;;
59189;SDS011;50749;51.636;4.948;2023-05-23T11:39:20;8.45;;;3.28;;
59189;SDS011;50749;51.636;4.948;2023-05-23T11:41:49;7.15;;;3.47;;
59189;SDS011;50749;51.636;4.948;2023-05-23T11:44:26;7.20;;;3.75;;
59189;SDS011;50749;51.636;4.948;2023-05-23T11:46:59;11.00;;;4.93;;
59189;SDS011;50749;51.636;4.948;2023-05-23T11:49:33;13.10;;;5.70;;
59189;SDS011;50749;51.636;4.948;2023-05-23T11:52:01;12.80;;;6.35;;
59189;SDS011;50749;51.636;4.948;2023-05-23T11:54:28;14.10;;;6.10;;
59189;SDS011;50749;51.636;4.948;2023-05-23T11:56:54;18.83;;;6.93;;
59189;SDS011;50749;51.636;4.948;2023-05-23T11:59:23;12.18;;;6.05;;
59189;SDS011;50749;51.636;4.948;2023-05-23T12:01:53;15.90;;;6.72;;
59189;SDS011;50749;51.636;4.948;2023-05-23T12:04:21;19.48;;;6.22;;
59189;SDS011;50749;51.636;4.948;2023-05-23T12:06:50;10.05;;;5.43;;
59189;SDS011;50749;51.636;4.948;2023-05-23T12:09:16;14.70;;;6.18;;
59189;SDS011;50749;51.636;4.948;2023-05-23T12:11:43;19.15;;;5.85;;
59189;SDS011;50749;51.636;4.948;2023-05-23T12:14:13;12.02;;;5.55;;
59189;SDS011;50749;51.636;4.948;2023-05-23T12:16:43;16.73;;;5.00;;
59189;SDS011;50749;51.636;4.948;2023-05-23T12:19:12;14.70;;;5.32;;
59189;SDS011;50749;51.636;4.948;2023-05-23T12:21:41;14.55;;;4.82;;
59189;SDS011;50749;51.636;4.948;2023-05-23T12:24:11;11.18;;;4.47;;
59189;SDS011;50749;51.636;4.948;2023-05-23T12:26:51;10.00;;;4.50;;
59189;SDS011;50749;51.636;4.948;2023-05-23T12:29:28;16.02;;;4.97;;
59189;SDS011;50749;51.636;4.948;2023-05-23T12:31:58;10.98;;;3.88;;
59189;SDS011;50749;51.636;4.948;2023-05-23T12:34:25;11.38;;;3.92;;
59189;SDS011;50749;51.636;4.948;2023-05-23T12:36:57;8.57;;;3.35;;
59189;SDS011;50749;51.636;4.948;2023-05-23T12:39:24;7.95;;;3.75;;
59189;SDS011;50749;51.636;4.948;2023-05-23T12:41:52;8.20;;;4.03;;
59189;SDS011;50749;51.636;4.948;2023-05-23T12:44:20;7.90;;;3.85;;
59189;SDS011;50749;51.636;4.948;2023-05-23T12:46:47;8.25;;;3.20;;
59189;SDS011;50749;51.636;4.948;2023-05-23T12:49:12;13.38;;;3.72;;
59189;SDS011;50749;51.636;4.948;2023-05-23T12:51:39;10.80;;;3.50;;
59189;SDS011;50749;51.636;4.948;2023-05-23T12:54:07;9.98;;;3.00;;
59189;SDS011;50749;51.636;4.948;2023-05-23T12:56:33;9.07;;;3.25;;
59189;SDS011;50749;51.636;4.948;2023-05-23T12:58:59;11.05;;;3.08;;
59189;SDS011;50749;51.636;4.948;2023-05-23T13:01:27;6.45;;;3.42;;
59189;SDS011;50749;51.636;4.948;2023-05-23T13:03:55;9.30;;;3.20;;
59189;SDS011;50749;51.636;4.948;2023-05-23T13:06:21;7.93;;;3.13;;
59189;SDS011;50749;51.636;4.948;2023-05-23T13:08:48;6.60;;;2.47;;
59189;SDS011;50749;51.636;4.948;2023-05-23T13:11:16;5.40;;;2.13;;
59189;SDS011;50749;51.636;4.948;2023-05-23T13:13:42;10.82;;;2.40;;
59189;SDS011;50749;51.636;4.948;2023-05-23T13:16:08;10.30;;;3.17;;
59189;SDS011;50749;51.636;4.948;2023-05-23T13:18:34;8.35;;;2.90;;
59189;SDS011;50749;51.636;4.948;2023-05-23T13:21:01;8.10;;;1.92;;
59189;SDS011;50749;51.636;4.948;2023-05-23T13:23:27;5.25;;;2.40;;
59189;SDS011;50749;51.636;4.948;2023-05-23T13:25:54;6.80;;;2.15;;
59189;SDS011;50749;51.636;4.948;2023-05-23T13:28:20;6.43;;;2.30;;
59189;SDS011;50749;51.636;4.948;2023-05-23T13:30:46;6.80;;;2.30;;
59189;SDS011;50749;51.636;4.948;2023-05-23T13:33:12;4.97;;;2.55;;
59189;SDS011;50749;51.636;4.948;2023-05-23T13:35:38;5.85;;;2.38;;
59189;SDS011;50749;51.636;4.948;2023-05-23T13:38:05;8.23;;;2.38;;
59189;SDS011;50749;51.636;4.948;2023-05-23T13:40:31;7.15;;;2.30;;
59189;SDS011;50749;51.636;4.948;2023-05-23T13:42:57;6.32;;;2.00;;
59189;SDS011;50749;51.636;4.948;2023-05-23T13:45:25;11.43;;;3.45;;
59189;SDS011;50749;51.636;4.948;2023-05-23T13:47:50;7.38;;;2.38;;
59189;SDS011;50749;51.636;4.948;2023-05-23T13:50:17;12.07;;;3.10;;
59189;SDS011;50749;51.636;4.948;2023-05-23T13:52:42;6.90;;;1.90;;
59189;SDS011;50749;51.636;4.948;2023-05-23T13:55:09;9.85;;;2.53;;
59189;SDS011;50749;51.636;4.948;2023-05-23T13:57:35;5.30;;;2.15;;
59189;SDS011;50749;51.636;4.948;2023-05-23T14:00:01;6.53;;;1.98;;
59189;SDS011;50749;51.636;4.948;2023-05-23T14:02:29;6.38;;;2.10;;
59189;SDS011;50749;51.636;4.948;2023-05-23T14:04:58;6.18;;;1.80;;
59189;SDS011;50749;51.636;4.948;2023-05-23T14:07:23;5.32;;;1.83;;
59189;SDS011;50749;51.636;4.948;2023-05-23T14:09:49;7.18;;;1.90;;
59189;SDS011;50749;51.636;4.948;2023-05-23T14:12:15;5.82;;;1.85;;
59189;SDS011;50749;51.636;4.948;2023-05-23T14:14:42;3.72;;;1.67;;
59189;SDS011;50749;51.636;4.948;2023-05-23T14:17:12;5.78;;;1.73;;
59189;SDS011;50749;51.636;4.948;2023-05-23T14:19:39;13.93;;;2.33;;
59189;SDS011;50749;51.636;4.948;2023-05-23T14:22:05;5.50;;;2.03;;
59189;SDS011;50749;51.636;4.948;2023-05-23T14:24:31;8.25;;;1.77;;
59189;SDS011;50749;51.636;4.948;2023-05-23T14:26:56;3.92;;;1.83;;
59189;SDS011;50749;51.636;4.948;2023-05-23T14:29:22;11.85;;;2.40;;
59189;SDS011;50749;51.636;4.948;2023-05-23T14:31:48;17.58;;;2.20;;
59189;SDS011;50749;51.636;4.948;2023-05-23T14:34:14;9.23;;;2.25;;
59189;SDS011;50749;51.636;4.948;2023-05-23T14:36:43;5.38;;;1.90;;
59189;SDS011;50749;51.636;4.948;2023-05-23T14:39:09;5.07;;;1.77;;
59189;SDS011;50749;51.636;4.948;2023-05-23T14:41:35;6.50;;;1.83;;
59189;SDS011;50749;51.636;4.948;2023-05-23T14:44:02;11.07;;;1.95;;
59189;SDS011;50749;51.636;4.948;2023-05-23T14:46:27;7.03;;;1.98;;
59189;SDS011;50749;51.636;4.948;2023-05-23T14:48:53;3.75;;;2.30;;
59189;SDS011;50749;51.636;4.948;2023-05-23T14:51:19;4.50;;;1.80;;
59189;SDS011;50749;51.636;4.948;2023-05-23T14:53:45;7.22;;;1.90;;
59189;SDS011;50749;51.636;4.948;2023-05-23T14:56:10;4.65;;;1.70;;
59189;SDS011;50749;51.636;4.948;2023-05-23T14:58:36;4.47;;;1.35;;
59189;SDS011;50749;51.636;4.948;2023-05-23T15:01:04;7.43;;;2.10;;
59189;SDS011;50749;51.636;4.948;2023-05-23T15:03:30;5.65;;;2.00;;
59189;SDS011;50749;51.636;4.948;2023-05-23T15:05:57;6.53;;;1.60;;
59189;SDS011;50749;51.636;4.948;2023-05-23T15:08:24;7.40;;;1.83;;
59189;SDS011;50749;51.636;4.948;2023-05-23T15:10:50;4.18;;;1.45;;
59189;SDS011;50749;51.636;4.948;2023-05-23T15:13:16;14.23;;;1.90;;
59189;SDS011;50749;51.636;4.948;2023-05-23T15:15:42;4.80;;;1.83;;